Time;durP1;ratioP1;P1;durP2;ratioP2;P2;SDS_P1;SDS_P2;PMS_P1;PMS_P2;Temp;Humidity;BMP_temperature;BMP_pressure;BME280_temperature;BME280_humidity;BME280_pressure;Samples;Min_cycle;Max_cycle;Signal;HPM_P1;HPM_P2
2022/09/02 00:01:30;;;;;;;3.40;2.13;;;;;;;;;;5104671;28;20215;-61
2022/09/02 00:03:59;;;;;;;2.90;2.57;;;;;;;;;;5120046;28;20226;-61
2022/09/02 00:06:28;;;;;;;2.30;1.90;;;;;;;;;;5121965;28;20213;-61
2022/09/02 00:08:56;;;;;;;3.77;2.07;;;;;;;;;;5121565;28;20259;-61
2022/09/02 00:11:26;;;;;;;4.03;2.37;;;;;;;;;;5121782;28;20210;-64
2022/09/02 00:13:56;;;;;;;3.27;2.20;;;;;;;;;;5121593;28;20230;-61
2022/09/02 00:16:24;;;;;;;3.23;2.13;;;;;;;;;;5121822;28;20237;-61
2022/09/02 00:18:55;;;;;;;2.30;2.10;;;;;;;;;;5121731;28;20210;-62
2022/09/02 00:21:24;;;;;;;3.87;1.87;;;;;;;;;;5121761;28;20240;-62
2022/09/02 00:23:52;;;;;;;2.53;2.10;;;;;;;;;;5116857;28;20222;-62
2022/09/02 00:26:20;;;;;;;1.70;1.60;;;;;;;;;;5100864;28;20702;-62
2022/09/02 00:28:48;;;;;;;2.17;1.90;;;;;;;;;;5100600;28;20206;-61
2022/09/02 00:31:23;;;;;;;2.30;2.10;;;;;;;;;;5120265;28;20210;-61
2022/09/02 00:33:52;;;;;;;2.60;2.10;;;;;;;;;;5121174;28;20221;-62
2022/09/02 00:36:22;;;;;;;2.53;1.70;;;;;;;;;;5121524;28;20239;-61
2022/09/02 00:38:50;;;;;;;3.13;2.07;;;;;;;;;;5121956;28;20200;-62
2022/09/02 00:41:19;;;;;;;2.53;2.33;;;;;;;;;;5121098;28;20205;-62
2022/09/02 00:43:49;;;;;;;2.07;1.90;;;;;;;;;;5121040;28;20231;-62
2022/09/02 00:46:18;;;;;;;3.80;1.93;;;;;;;;;;5121099;28;20205;-62
2022/09/02 00:48:48;;;;;;;2.10;2.00;;;;;;;;;;5121167;28;20234;-62
2022/09/02 00:51:16;;;;;;;2.43;2.17;;;;;;;;;;5120927;28;20267;-61
2022/09/02 00:53:46;;;;;;;1.90;1.73;;;;;;;;;;5110550;28;20292;-61
2022/09/02 00:56:18;;;;;;;2.03;1.93;;;;;;;;;;5115582;28;20204;-62
2022/09/02 00:58:47;;;;;;;4.67;2.80;;;;;;;;;;5120783;28;20204;-62
2022/09/02 01:01:15;;;;;;;4.00;2.40;;;;;;;;;;5120906;28;20229;-62
2022/09/02 01:03:43;;;;;;;2.87;2.43;;;;;;;;;;5118230;28;20689;-61
2022/09/02 01:06:14;;;;;;;2.90;2.33;;;;;;;;;;5115045;28;20606;-62
2022/09/02 01:08:49;;;;;;;3.97;3.20;;;;;;;;;;5100545;28;20205;-62
2022/09/02 01:11:20;;;;;;;4.30;2.33;;;;;;;;;;5107749;28;20268;-62
2022/09/02 01:13:48;;;;;;;2.50;2.30;;;;;;;;;;5120072;28;20261;-62
2022/09/02 01:16:19;;;;;;;5.23;2.60;;;;;;;;;;5118731;28;20258;-62
2022/09/02 01:18:50;;;;;;;2.80;2.27;;;;;;;;;;5117940;28;20197;-62
2022/09/02 01:21:18;;;;;;;2.63;2.43;;;;;;;;;;5117056;28;20241;-61
2022/09/02 01:23:48;;;;;;;3.90;2.63;;;;;;;;;;5116797;28;20260;-62
2022/09/02 01:26:17;;;;;;;2.97;2.40;;;;;;;;;;5118845;28;20203;-62
2022/09/02 01:28:46;;;;;;;2.77;2.53;;;;;;;;;;5116863;28;20234;-62
2022/09/02 01:31:14;;;;;;;3.07;2.77;;;;;;;;;;5119154;28;20256;-62
2022/09/02 01:33:42;;;;;;;3.50;2.87;;;;;;;;;;5118198;28;20711;-62
2022/09/02 01:36:12;;;;;;;5.67;2.90;;;;;;;;;;5117653;28;20712;-62
2022/09/02 01:38:40;;;;;;;2.93;2.60;;;;;;;;;;5115870;28;20201;-62
2022/09/02 01:41:10;;;;;;;3.10;2.83;;;;;;;;;;5118833;28;20221;-63
2022/09/02 01:43:38;;;;;;;3.17;2.87;;;;;;;;;;5118008;28;20651;-62
2022/09/02 01:46:06;;;;;;;2.77;2.57;;;;;;;;;;5119765;28;20221;-62
2022/09/02 01:48:34;;;;;;;3.20;2.90;;;;;;;;;;5119700;28;20228;-62
2022/09/02 01:51:02;;;;;;;3.93;2.70;;;;;;;;;;5119453;28;20707;-62
2022/09/02 01:53:31;;;;;;;4.17;3.07;;;;;;;;;;5111282;28;20738;-62
2022/09/02 01:55:59;;;;;;;4.27;2.83;;;;;;;;;;5099068;28;20228;-62
2022/09/02 01:58:28;;;;;;;3.73;3.40;;;;;;;;;;5098958;28;20634;-62
2022/09/02 02:00:56;;;;;;;3.30;3.00;;;;;;;;;;5099259;28;20238;-62
2022/09/02 02:03:24;;;;;;;3.77;2.80;;;;;;;;;;5099060;28;20304;-62
2022/09/02 02:05:52;;;;;;;2.93;2.70;;;;;;;;;;5099191;28;20239;-62
2022/09/02 02:08:20;;;;;;;2.70;2.50;;;;;;;;;;5099249;28;20236;-62
2022/09/02 02:10:48;;;;;;;2.67;2.47;;;;;;;;;;5098653;28;20267;-62
2022/09/02 02:13:16;;;;;;;2.77;2.57;;;;;;;;;;5098713;28;20277;-62
2022/09/02 02:15:46;;;;;;;3.30;3.00;;;;;;;;;;5098807;28;20236;-62
2022/09/02 02:18:14;;;;;;;4.83;2.93;;;;;;;;;;5099131;28;20239;-62
2022/09/02 02:20:42;;;;;;;4.00;3.07;;;;;;;;;;5098942;28;20233;-62
2022/09/02 02:23:12;;;;;;;2.97;2.77;;;;;;;;;;5103545;28;20267;-63
2022/09/02 02:25:40;;;;;;;3.03;2.77;;;;;;;;;;5118971;28;20215;-63
2022/09/02 02:28:08;;;;;;;4.40;3.07;;;;;;;;;;5119030;28;20208;-62
2022/09/02 02:30:37;;;;;;;2.77;2.57;;;;;;;;;;5119064;28;20227;-63
2022/09/02 02:33:06;;;;;;;3.23;2.67;;;;;;;;;;5119176;27;20236;-62
2022/09/02 02:35:34;;;;;;;3.17;2.87;;;;;;;;;;5105249;28;20246;-62
2022/09/02 02:38:02;;;;;;;3.43;2.67;;;;;;;;;;5119038;28;20215;-64
2022/09/02 02:40:31;;;;;;;4.27;3.17;;;;;;;;;;5118616;28;20657;-62
2022/09/02 02:42:59;;;;;;;3.23;3.00;;;;;;;;;;5115947;27;20274;-62
2022/09/02 02:45:27;;;;;;;2.93;2.63;;;;;;;;;;5108613;28;20255;-63
2022/09/02 02:47:55;;;;;;;2.77;2.57;;;;;;;;;;5111642;28;20208;-63
2022/09/02 02:50:24;;;;;;;3.77;2.70;;;;;;;;;;5112365;27;20256;-63
2022/09/02 02:52:53;;;;;;;2.90;2.70;;;;;;;;;;5123263;27;20239;-63
2022/09/02 02:55:23;;;;;;;5.20;3.10;;;;;;;;;;5124811;27;20203;-62
2022/09/02 02:57:51;;;;;;;6.20;3.20;;;;;;;;;;5128323;27;20292;-62
2022/09/02 03:00:21;;;;;;;4.03;3.30;;;;;;;;;;5124743;27;20203;-62
2022/09/02 03:02:49;;;;;;;3.93;3.53;;;;;;;;;;5125380;27;20226;-62
2022/09/02 03:05:18;;;;;;;3.40;3.10;;;;;;;;;;5122359;27;20562;-65
2022/09/02 03:07:47;;;;;;;4.17;3.57;;;;;;;;;;5123915;27;20202;-62
2022/09/02 03:10:15;;;;;;;4.77;3.47;;;;;;;;;;5128873;27;20228;-62
2022/09/02 03:12:46;;;;;;;3.47;3.10;;;;;;;;;;5126965;27;20231;-62
2022/09/02 03:15:15;;;;;;;3.70;3.40;;;;;;;;;;5108428;27;20303;-62
2022/09/02 03:17:43;;;;;;;4.67;3.37;;;;;;;;;;5098765;28;20236;-63
2022/09/02 03:20:12;;;;;;;4.03;3.60;;;;;;;;;;5102887;28;20235;-63
2022/09/02 03:22:40;;;;;;;3.73;3.27;;;;;;;;;;5115072;28;20234;-63
2022/09/02 03:25:11;;;;;;;5.33;3.00;;;;;;;;;;5117686;28;20223;-62
2022/09/02 03:27:40;;;;;;;9.53;3.60;;;;;;;;;;5117464;28;20210;-62
2022/09/02 03:30:10;;;;;;;5.10;3.77;;;;;;;;;;5118104;28;20238;-62
2022/09/02 03:32:38;;;;;;;4.37;3.20;;;;;;;;;;5117929;28;20256;-62
2022/09/02 03:35:07;;;;;;;5.47;3.70;;;;;;;;;;5118025;28;20226;-62
2022/09/02 03:37:36;;;;;;;4.63;3.27;;;;;;;;;;5107192;28;20203;-62
2022/09/02 03:40:04;;;;;;;5.67;3.77;;;;;;;;;;5121776;28;20259;-62
2022/09/02 03:42:33;;;;;;;10.90;5.77;;;;;;;;;;5126204;27;20189;-62
2022/09/02 03:45:01;;;;;;;8.63;5.07;;;;;;;;;;5129872;27;20685;-62
2022/09/02 03:47:29;;;;;;;14.13;6.67;;;;;;;;;;5129402;27;20247;-62
2022/09/02 03:49:58;;;;;;;20.93;9.00;;;;;;;;;;5124559;27;20258;-62
2022/09/02 03:52:26;;;;;;;23.53;9.93;;;;;;;;;;5128256;27;20230;-63
2022/09/02 03:54:54;;;;;;;30.97;10.03;;;;;;;;;;5121527;28;20244;-63
2022/09/02 03:57:24;;;;;;;20.17;9.43;;;;;;;;;;5121553;28;20213;-63
2022/09/02 03:59:54;;;;;;;21.30;9.00;;;;;;;;;;5121779;28;20206;-62
2022/09/02 04:02:23;;;;;;;14.47;6.90;;;;;;;;;;5121665;28;20666;-63
2022/09/02 04:04:51;;;;;;;11.73;6.77;;;;;;;;;;5121262;28;20798;-63
2022/09/02 04:07:19;;;;;;;14.53;6.77;;;;;;;;;;5121390;28;20256;-61
2022/09/02 04:09:48;;;;;;;12.73;7.20;;;;;;;;;;5121310;28;20562;-60
2022/09/02 04:12:16;;;;;;;13.93;6.97;;;;;;;;;;5119820;28;20229;-60
2022/09/02 04:14:44;;;;;;;12.67;6.53;;;;;;;;;;5116951;28;20259;-60
2022/09/02 04:17:14;;;;;;;12.13;7.30;;;;;;;;;;5107658;28;20227;-60
2022/09/02 04:19:42;;;;;;;15.53;7.47;;;;;;;;;;5121062;28;20204;-60
2022/09/02 04:22:10;;;;;;;15.77;7.87;;;;;;;;;;5118175;28;20197;-60
2022/09/02 04:24:38;;;;;;;14.33;7.33;;;;;;;;;;5114217;28;20224;-60
2022/09/02 04:27:06;;;;;;;18.53;8.53;;;;;;;;;;5114310;28;20295;-60
2022/09/02 04:29:35;;;;;;;15.13;8.63;;;;;;;;;;5115560;28;20550;-60
2022/09/02 04:32:03;;;;;;;19.77;8.23;;;;;;;;;;5117371;28;20234;-60
2022/09/02 04:34:33;;;;;;;18.83;8.57;;;;;;;;;;5121090;28;20230;-60
2022/09/02 04:37:01;;;;;;;12.90;6.67;;;;;;;;;;5120683;28;20217;-60
2022/09/02 04:39:29;;;;;;;11.93;6.20;;;;;;;;;;5121069;28;20197;-60
2022/09/02 04:41:58;;;;;;;13.23;6.77;;;;;;;;;;5120425;28;20612;-60
2022/09/02 04:44:26;;;;;;;15.17;6.23;;;;;;;;;;5120670;28;20312;-60
2022/09/02 04:46:54;;;;;;;12.17;6.20;;;;;;;;;;5103520;28;20238;-60
2022/09/02 04:49:23;;;;;;;13.47;6.13;;;;;;;;;;5109881;28;20205;-60
2022/09/02 04:51:53;;;;;;;12.07;6.43;;;;;;;;;;5123627;27;20234;-60
2022/09/02 04:54:21;;;;;;;15.03;6.90;;;;;;;;;;5129063;27;20691;-60
2022/09/02 04:56:49;;;;;;;15.67;7.80;;;;;;;;;;5126063;27;20225;-60
2022/09/02 04:59:19;;;;;;;17.63;8.13;;;;;;;;;;5123581;27;20707;-60
2022/09/02 05:01:48;;;;;;;14.80;8.13;;;;;;;;;;5125221;27;20197;-60
2022/09/02 05:04:17;;;;;;;19.87;9.43;;;;;;;;;;5100001;28;20297;-60
2022/09/02 05:06:45;;;;;;;22.40;9.73;;;;;;;;;;5109531;28;20555;-60
2022/09/02 05:09:15;;;;;;;24.30;10.60;;;;;;;;;;5117614;28;20231;-60
2022/09/02 05:11:46;;;;;;;28.60;10.70;;;;;;;;;;5106572;28;20318;-60
2022/09/02 05:14:15;;;;;;;21.37;9.70;;;;;;;;;;5105238;28;20583;-60
2022/09/02 05:16:44;;;;;;;22.13;8.57;;;;;;;;;;5100011;28;20292;-62
2022/09/02 05:19:12;;;;;;;21.23;9.10;;;;;;;;;;5099579;28;20205;-61
2022/09/02 05:21:41;;;;;;;23.70;8.80;;;;;;;;;;5104126;28;20215;-61
2022/09/02 05:24:09;;;;;;;25.80;10.17;;;;;;;;;;5104904;28;20221;-60
2022/09/02 05:26:39;;;;;;;23.00;8.30;;;;;;;;;;5111659;28;20703;-60
2022/09/02 05:29:07;;;;;;;26.77;9.87;;;;;;;;;;5123380;27;20199;-60
2022/09/02 05:31:35;;;;;;;21.27;9.40;;;;;;;;;;5129846;27;20225;-62
2022/09/02 05:34:03;;;;;;;22.40;8.43;;;;;;;;;;5106587;27;20221;-60
2022/09/02 05:36:31;;;;;;;22.10;8.07;;;;;;;;;;5099267;28;20311;-60
2022/09/02 05:38:59;;;;;;;21.10;7.90;;;;;;;;;;5099076;28;20262;-60
2022/09/02 05:41:27;;;;;;;17.00;6.33;;;;;;;;;;5110833;28;20221;-60
2022/09/02 05:43:58;;;;;;;17.67;7.33;;;;;;;;;;5115729;28;20257;-60
2022/09/02 05:46:30;;;;;;;15.23;6.57;;;;;;;;;;5120739;27;20288;-60
2022/09/02 05:49:07;;;;;;;14.30;6.60;;;;;;;;;;5128781;27;20197;-60
2022/09/02 05:51:41;;;;;;;15.43;6.23;;;;;;;;;;5124020;27;20194;-60
2022/09/02 05:54:10;;;;;;;11.90;6.60;;;;;;;;;;5121305;27;20218;-60
2022/09/02 05:56:39;;;;;;;14.17;6.87;;;;;;;;;;5109921;27;20217;-59
2022/09/02 05:59:13;;;;;;;19.17;7.43;;;;;;;;;;5124439;27;20756;-60
2022/09/02 06:01:41;;;;;;;14.90;7.03;;;;;;;;;;5123313;27;20211;-60
2022/09/02 06:04:10;;;;;;;18.80;7.03;;;;;;;;;;5127751;27;20236;-61
2022/09/02 06:06:50;;;;;;;16.97;7.30;;;;;;;;;;5122061;27;20201;-59
2022/09/02 06:09:21;;;;;;;14.33;6.97;;;;;;;;;;5122274;27;20220;-60
2022/09/02 06:11:49;;;;;;;17.20;8.07;;;;;;;;;;5114357;28;20202;-60
2022/09/02 06:14:20;;;;;;;22.13;7.63;;;;;;;;;;5109916;28;20581;-60
2022/09/02 06:16:49;;;;;;;18.13;7.90;;;;;;;;;;5118197;28;20209;-60
2022/09/02 06:19:17;;;;;;;20.87;8.57;;;;;;;;;;5118432;28;20205;-60
2022/09/02 06:21:47;;;;;;;22.23;9.40;;;;;;;;;;5118619;28;20574;-61
2022/09/02 06:24:16;;;;;;;20.30;8.53;;;;;;;;;;5116868;28;20223;-60
2022/09/02 06:26:44;;;;;;;19.57;8.83;;;;;;;;;;5124096;27;20230;-61
2022/09/02 06:29:12;;;;;;;19.47;7.87;;;;;;;;;;5122223;27;20236;-63
2022/09/02 06:31:42;;;;;;;17.50;7.70;;;;;;;;;;5113635;27;20204;-64
2022/09/02 06:34:13;;;;;;;13.57;5.13;;;;;;;;;;5115103;28;20289;-61
2022/09/02 06:36:42;;;;;;;11.07;5.43;;;;;;;;;;5118484;28;20212;-64
2022/09/02 06:39:12;;;;;;;12.67;5.80;;;;;;;;;;5118412;28;20224;-63
2022/09/02 06:41:41;;;;;;;11.77;5.03;;;;;;;;;;5117056;28;20546;-61
2022/09/02 06:44:10;;;;;;;10.97;5.23;;;;;;;;;;5116345;28;20214;-61
2022/09/02 06:46:44;;;;;;;9.40;4.37;;;;;;;;;;5117779;28;20286;-63
2022/09/02 06:49:12;;;;;;;8.03;4.50;;;;;;;;;;5112988;27;20289;-61
2022/09/02 06:51:41;;;;;;;9.30;4.67;;;;;;;;;;5114632;28;20564;-60
2022/09/02 06:54:10;;;;;;;7.37;4.17;;;;;;;;;;5117456;28;20681;-62
2022/09/02 06:56:41;;;;;;;9.53;4.33;;;;;;;;;;5117333;28;20272;-63
2022/09/02 06:59:15;;;;;;;10.60;5.23;;;;;;;;;;5117825;27;20252;-63
2022/09/02 07:01:45;;;;;;;6.73;3.80;;;;;;;;;;5114997;28;20204;-61
2022/09/02 07:07:00;;;;;;;8.83;4.57;;;;;;;;;;5108973;27;20200;-61
2022/09/02 07:09:29;;;;;;;8.63;4.53;;;;;;;;;;5100359;28;20211;-60
2022/09/02 07:11:58;;;;;;;7.30;4.60;;;;;;;;;;5110319;27;20206;-61
2022/09/02 07:14:31;;;;;;;6.10;3.87;;;;;;;;;;5122631;27;20229;-61
2022/09/02 07:17:01;;;;;;;6.53;3.80;;;;;;;;;;5123932;27;20228;-61
2022/09/02 07:19:29;;;;;;;9.00;3.53;;;;;;;;;;5121296;27;20195;-61
2022/09/02 07:21:57;;;;;;;6.57;3.40;;;;;;;;;;5121707;27;20203;-60
2022/09/02 07:24:25;;;;;;;4.90;3.43;;;;;;;;;;5121313;27;20669;-59
2022/09/02 07:26:53;;;;;;;6.40;3.57;;;;;;;;;;5122934;27;20201;-59
2022/09/02 07:29:23;;;;;;;6.17;3.47;;;;;;;;;;5123889;27;20285;-60
2022/09/02 07:31:51;;;;;;;4.40;3.53;;;;;;;;;;5117493;28;20253;-59
2022/09/02 07:34:20;;;;;;;4.17;3.30;;;;;;;;;;5117724;28;20253;-59
2022/09/02 07:36:48;;;;;;;11.87;4.10;;;;;;;;;;5117569;28;20244;-59
2022/09/02 07:39:17;;;;;;;5.17;3.20;;;;;;;;;;5119626;28;20202;-62
2022/09/02 07:41:47;;;;;;;4.20;3.20;;;;;;;;;;5128014;28;20197;-62
2022/09/02 07:44:16;;;;;;;3.47;3.13;;;;;;;;;;5125547;28;20246;-62
2022/09/02 07:46:44;;;;;;;5.17;3.20;;;;;;;;;;5123015;28;20287;-62
2022/09/02 07:49:14;;;;;;;4.70;3.00;;;;;;;;;;5125977;28;20562;-63
2022/09/02 07:51:48;;;;;;;4.73;3.30;;;;;;;;;;5123298;28;20562;-63
2022/09/02 07:54:17;;;;;;;5.10;3.00;;;;;;;;;;5110532;28;20225;-62
2022/09/02 07:56:45;;;;;;;6.07;3.23;;;;;;;;;;5105440;28;20197;-62
2022/09/02 07:59:14;;;;;;;5.33;3.20;;;;;;;;;;5106267;28;20204;-63
2022/09/02 08:01:42;;;;;;;4.53;3.20;;;;;;;;;;5107012;28;20201;-62
2022/09/02 08:04:17;;;;;;;4.77;2.70;;;;;;;;;;5113731;28;20213;-62
2022/09/02 08:06:47;;;;;;;4.47;3.27;;;;;;;;;;5124662;28;20653;-63
2022/09/02 08:09:18;;;;;;;6.10;3.40;;;;;;;;;;5128276;27;20213;-63
2022/09/02 08:11:48;;;;;;;4.80;3.20;;;;;;;;;;5124652;28;20625;-63
2022/09/02 08:14:23;;;;;;;9.73;4.63;;;;;;;;;;5126781;28;20251;-62
2022/09/02 08:16:52;;;;;;;7.07;3.50;;;;;;;;;;5122512;28;20196;-63
2022/09/02 08:19:21;;;;;;;6.33;3.50;;;;;;;;;;5130556;28;20214;-63
2022/09/02 08:21:51;;;;;;;5.07;3.17;;;;;;;;;;5097413;28;20207;-62
2022/09/02 08:24:19;;;;;;;6.03;2.77;;;;;;;;;;5111818;28;20226;-64
2022/09/02 08:26:47;;;;;;;8.30;4.07;;;;;;;;;;5121035;28;20629;-63
2022/09/02 08:29:15;;;;;;;6.67;3.83;;;;;;;;;;5121254;28;20209;-61
2022/09/02 08:31:46;;;;;;;22.67;3.53;;;;;;;;;;5112654;28;20250;-61
2022/09/02 08:34:20;;;;;;;3.10;2.80;;;;;;;;;;5121113;28;20228;-61
2022/09/02 08:36:48;;;;;;;5.10;2.70;;;;;;;;;;5121263;28;20210;-61
2022/09/02 08:39:25;;;;;;;6.57;2.57;;;;;;;;;;5121226;28;20234;-62
2022/09/02 08:41:59;;;;;;;3.77;2.90;;;;;;;;;;5121169;28;20205;-62
2022/09/02 08:44:28;;;;;;;3.10;2.80;;;;;;;;;;5123865;27;20219;-61
2022/09/02 08:46:58;;;;;;;3.27;2.90;;;;;;;;;;5127090;27;20195;-61
2022/09/02 08:49:29;;;;;;;3.40;2.60;;;;;;;;;;5131526;27;20193;-61
2022/09/02 08:51:58;;;;;;;5.10;2.57;;;;;;;;;;5126768;27;20261;-62
2022/09/02 08:54:31;;;;;;;3.83;2.67;;;;;;;;;;5127252;27;20223;-61
2022/09/02 08:56:59;;;;;;;5.60;2.50;;;;;;;;;;5125677;27;20221;-62
2022/09/02 08:59:30;;;;;;;4.77;2.60;;;;;;;;;;5126969;27;20624;-62
2022/09/02 09:02:00;;;;;;;2.83;2.63;;;;;;;;;;5123099;27;20249;-61
2022/09/02 09:04:37;;;;;;;9.03;6.50;;;;;;;;;;5104795;28;20278;-60
2022/09/02 09:07:16;;;;;;;4.53;2.60;;;;;;;;;;5107280;28;20215;-61
2022/09/02 09:09:51;;;;;;;3.77;2.80;;;;;;;;;;5120701;28;20255;-61
2022/09/02 09:12:24;;;;;;;4.77;2.70;;;;;;;;;;5119928;28;20215;-61
2022/09/02 09:14:56;;;;;;;2.90;2.60;;;;;;;;;;5120082;28;20231;-61
2022/09/02 09:17:27;;;;;;;6.27;2.90;;;;;;;;;;5120336;28;20207;-61
2022/09/02 09:19:57;;;;;;;7.17;2.50;;;;;;;;;;5120138;28;20207;-61
2022/09/02 09:22:28;;;;;;;3.37;2.60;;;;;;;;;;5117404;28;20611;-61
2022/09/02 09:24:58;;;;;;;2.80;2.57;;;;;;;;;;5116179;28;20223;-61
2022/09/02 09:27:27;;;;;;;5.07;2.83;;;;;;;;;;5102164;28;20204;-61
2022/09/02 09:29:55;;;;;;;3.30;3.00;;;;;;;;;;5119720;28;20255;-61
2022/09/02 09:32:25;;;;;;;2.77;2.57;;;;;;;;;;5116214;28;20224;-61
2022/09/02 09:35:00;;;;;;;4.80;2.50;;;;;;;;;;5119842;28;20234;-61
2022/09/02 09:37:32;;;;;;;3.90;2.87;;;;;;;;;;5118760;28;20672;-61
2022/09/02 09:40:18;;;;;;;2.90;2.70;;;;;;;;;;5119813;28;20207;-61
2022/09/02 09:42:50;;;;;;;3.03;2.73;;;;;;;;;;5116728;28;20612;-61
2022/09/02 09:45:21;;;;;;;3.50;3.20;;;;;;;;;;5112808;28;20214;-61
2022/09/02 09:48:06;;;;;;;3.50;2.97;;;;;;;;;;5112962;28;20623;-61
2022/09/02 09:50:34;;;;;;;3.70;2.90;;;;;;;;;;5116413;28;20239;-61
2022/09/02 09:53:14;;;;;;;3.63;2.97;;;;;;;;;;5107991;28;20235;-61
2022/09/02 09:55:50;;;;;;;4.07;3.50;;;;;;;;;;5107795;28;20265;-61
2022/09/02 09:58:20;;;;;;;8.47;3.50;;;;;;;;;;5118839;28;20238;-61
2022/09/02 10:00:49;;;;;;;6.17;3.37;;;;;;;;;;5118947;28;20207;-61
2022/09/02 10:03:22;;;;;;;6.20;3.50;;;;;;;;;;5125925;27;20218;-62
2022/09/02 10:05:53;;;;;;;5.20;3.20;;;;;;;;;;5128531;27;20204;-59
2022/09/02 10:08:23;;;;;;;3.60;3.07;;;;;;;;;;5120433;27;20208;-59
2022/09/02 10:10:56;;;;;;;4.70;3.17;;;;;;;;;;5125128;27;20202;-59
2022/09/02 10:13:27;;;;;;;3.03;2.73;;;;;;;;;;5124911;27;20250;-61
2022/09/02 10:16:05;;;;;;;5.00;2.57;;;;;;;;;;5128113;27;20255;-61
2022/09/02 10:18:35;;;;;;;4.33;2.97;;;;;;;;;;5121132;27;20608;-61
2022/09/02 10:21:07;;;;;;;5.63;2.77;;;;;;;;;;5119146;27;20235;-61
2022/09/02 10:23:47;;;;;;;2.77;2.57;;;;;;;;;;5118588;28;20212;-60
2022/09/02 10:26:19;;;;;;;6.70;3.00;;;;;;;;;;5125425;27;20655;-60
2022/09/02 10:29:08;;;;;;;3.30;3.00;;;;;;;;;;5120178;27;20202;-71
2022/09/02 10:31:38;;;;;;;3.33;3.03;;;;;;;;;;5127131;27;20206;-65
2022/09/02 10:34:11;;;;;;;3.73;2.87;;;;;;;;;;5118391;27;20291;-65
2022/09/02 10:36:44;;;;;;;6.83;2.90;;;;;;;;;;5126579;27;20199;-65
2022/09/02 10:39:17;;;;;;;3.17;2.70;;;;;;;;;;5118856;27;20265;-66
2022/09/02 10:41:46;;;;;;;5.63;2.77;;;;;;;;;;5124078;27;20217;-67
2022/09/02 10:44:30;;;;;;;3.80;3.30;;;;;;;;;;5127978;27;20242;-63
2022/09/02 10:47:01;;;;;;;3.13;2.80;;;;;;;;;;5124821;27;20196;-64
2022/09/02 10:49:35;;;;;;;13.83;8.07;;;;;;;;;;5123835;27;20565;-60
2022/09/02 10:52:09;;;;;;;4.40;3.40;;;;;;;;;;5115814;28;20228;-60
2022/09/02 10:54:43;;;;;;;5.10;3.20;;;;;;;;;;5108151;28;20239;-60
2022/09/02 10:57:14;;;;;;;5.63;3.10;;;;;;;;;;5118203;28;20228;-60
2022/09/02 10:59:44;;;;;;;4.50;3.30;;;;;;;;;;5118173;28;20523;-60
2022/09/02 11:02:15;;;;;;;4.00;3.27;;;;;;;;;;5118166;28;20234;-60
2022/09/02 11:04:46;;;;;;;3.70;3.30;;;;;;;;;;5118297;28;20226;-59
2022/09/02 11:07:17;;;;;;;3.67;3.20;;;;;;;;;;5118610;28;20207;-59
2022/09/02 11:09:46;;;;;;;3.23;2.93;;;;;;;;;;5118448;28;20232;-61
2022/09/02 11:12:17;;;;;;;3.70;2.80;;;;;;;;;;5117832;28;20634;-59
2022/09/02 11:14:53;;;;;;;5.50;3.10;;;;;;;;;;5118306;28;20258;-61
2022/09/02 11:17:24;;;;;;;4.67;3.43;;;;;;;;;;5113474;28;20198;-60
2022/09/02 11:19:55;;;;;;;6.10;3.20;;;;;;;;;;5118160;28;20239;-61
2022/09/02 11:22:25;;;;;;;3.90;2.83;;;;;;;;;;5118193;28;20235;-61
2022/09/02 11:24:59;;;;;;;5.05;3.47;;;;;;;;;;5111301;28;20219;-61
2022/09/02 11:27:32;;;;;;;4.07;2.67;;;;;;;;;;5097322;28;20233;-60
2022/09/02 11:30:12;;;;;;;3.30;2.90;;;;;;;;;;5097640;28;20628;-61
2022/09/02 11:32:44;;;;;;;4.15;3.75;;;;;;;;;;5098601;28;20207;-61
2022/09/02 11:35:14;;;;;;;4.60;3.03;;;;;;;;;;5115528;28;20262;-61
2022/09/02 11:37:44;;;;;;;3.23;2.80;;;;;;;;;;5118144;28;20667;-61
2022/09/02 11:40:17;;;;;;;4.43;2.95;;;;;;;;;;5117911;28;20257;-60
2022/09/02 11:43:12;;;;;;;4.03;2.83;;;;;;;;;;5117595;28;20595;-61
2022/09/02 11:45:55;;;;;;;2.93;2.70;;;;;;;;;;5118113;28;20207;-61
2022/09/02 11:48:35;;;;;;;6.03;3.07;;;;;;;;;;5106729;28;20231;-60
2022/09/02 11:51:24;;;;;;;4.83;3.27;;;;;;;;;;5106102;28;20242;-61
2022/09/02 11:53:52;;;;;;;3.90;3.42;;;;;;;;;;5094063;28;20280;-60
2022/09/02 11:56:25;;;;;;;3.73;3.43;;;;;;;;;;5096935;28;20753;-61
2022/09/02 11:58:53;;;;;;;4.40;3.00;;;;;;;;;;5097526;28;20548;-59
2022/09/02 12:01:28;;;;;;;8.03;3.23;;;;;;;;;;5101444;28;20208;-59
2022/09/02 12:04:01;;;;;;;3.40;2.90;;;;;;;;;;5101688;28;20269;-59
2022/09/02 12:07:18;;;;;;;3.60;2.77;;;;;;;;;;5101247;28;20216;-59
2022/09/02 12:09:47;;;;;;;8.00;3.00;;;;;;;;;;5066307;28;20235;-59
2022/09/02 12:12:30;;;;;;;3.58;3.00;;;;;;;;;;5100948;28;20256;-61
2022/09/02 12:15:05;;;;;;;2.90;2.60;;;;;;;;;;5100961;28;20225;-61
2022/09/02 12:17:36;;;;;;;5.35;3.30;;;;;;;;;;5100684;28;20201;-60
2022/09/02 12:20:07;;;;;;;3.13;2.85;;;;;;;;;;5107861;28;20655;-61
2022/09/02 12:22:37;;;;;;;5.30;2.83;;;;;;;;;;5121602;28;20208;-61
2022/09/02 12:25:28;;;;;;;6.13;2.88;;;;;;;;;;5109277;28;20235;-61
2022/09/02 12:28:09;;;;;;;3.33;3.08;;;;;;;;;;5120978;28;20233;-61
2022/09/02 12:31:07;;;;;;;14.18;4.00;;;;;;;;;;5121437;28;20688;-61
2022/09/02 12:33:36;;;;;;;4.78;2.70;;;;;;;;;;5121476;28;20240;-59
2022/09/02 12:36:06;;;;;;;5.22;3.58;;;;;;;;;;5121129;28;20229;-60
2022/09/02 12:38:37;;;;;;;3.00;2.40;;;;;;;;;;5121422;27;20208;-60
2022/09/02 12:41:12;;;;;;;3.58;2.13;;;;;;;;;;5120644;28;20206;-59
2022/09/02 12:43:47;;;;;;;3.65;2.05;;;;;;;;;;5121269;28;20229;-59
2022/09/02 12:46:19;;;;;;;3.38;1.90;;;;;;;;;;5121086;28;20674;-59
2022/09/02 12:48:51;;;;;;;1.92;1.80;;;;;;;;;;5108393;28;20295;-58
2022/09/02 12:51:33;;;;;;;1.90;1.80;;;;;;;;;;5121037;28;20563;-59
2022/09/02 12:54:05;;;;;;;1.67;1.57;;;;;;;;;;5101712;28;20240;-61
2022/09/02 12:56:33;;;;;;;1.80;1.70;;;;;;;;;;5100349;28;20225;-61
2022/09/02 12:59:01;;;;;;;1.40;1.30;;;;;;;;;;5100517;28;20573;-61
2022/09/02 13:01:37;;;;;;;1.63;1.53;;;;;;;;;;5100463;28;20213;-59
2022/09/02 13:04:25;;;;;;;1.33;1.23;;;;;;;;;;5100571;28;20229;-60
2022/09/02 13:07:04;;;;;;;1.20;1.10;;;;;;;;;;5100539;28;20202;-60
2022/09/02 13:09:52;;;;;;;1.87;1.40;;;;;;;;;;5100561;28;20236;-59
2022/09/02 13:12:35;;;;;;;1.25;1.15;;;;;;;;;;5095051;28;20212;-60
2022/09/02 13:15:16;;;;;;;1.30;1.20;;;;;;;;;;5066712;28;20536;-59
2022/09/02 13:18:06;;;;;;;1.45;1.35;;;;;;;;;;5100032;28;20227;-60
2022/09/02 13:20:52;;;;;;;1.50;1.40;;;;;;;;;;5111526;28;20242;-60
2022/09/02 13:23:43;;;;;;;0.90;0.90;;;;;;;;;;5120543;28;20235;-60
2022/09/02 13:26:26;;;;;;;1.77;1.30;;;;;;;;;;5102529;28;20206;-60
2022/09/02 13:29:26;;;;;;;1.42;1.10;;;;;;;;;;5100043;28;20308;-60
2022/09/02 13:32:03;;;;;;;4.97;1.38;;;;;;;;;;5100153;28;20237;-60
2022/09/02 13:34:31;;;;;;;3.80;1.17;;;;;;;;;;5102936;28;20242;-60
2022/09/02 13:36:59;;;;;;;1.80;1.15;;;;;;;;;;5112538;28;20273;-60
2022/09/02 13:39:28;;;;;;;1.55;1.00;;;;;;;;;;5120223;28;20202;-60
2022/09/02 13:41:56;;;;;;;5.47;1.30;;;;;;;;;;5120218;28;20238;-60
2022/09/02 13:44:25;;;;;;;2.30;1.77;;;;;;;;;;5120272;28;20230;-60
2022/09/02 13:46:54;;;;;;;1.20;1.10;;;;;;;;;;5120233;28;20209;-60
2022/09/02 13:49:26;;;;;;;1.85;1.50;;;;;;;;;;5108363;28;20217;-60
2022/09/02 13:51:55;;;;;;;2.80;1.50;;;;;;;;;;5117853;28;20229;-60
2022/09/02 13:54:41;;;;;;;2.60;1.55;;;;;;;;;;5099259;28;20242;-60
2022/09/02 13:57:11;;;;;;;2.15;1.40;;;;;;;;;;5098801;28;20261;-60
2022/09/02 13:59:40;;;;;;;1.73;1.60;;;;;;;;;;5099197;28;20686;-64
2022/09/02 14:02:18;;;;;;;1.60;1.42;;;;;;;;;;5099427;28;20208;-62
2022/09/02 14:04:49;;;;;;;2.15;1.73;;;;;;;;;;5099241;28;20226;-63
2022/09/02 14:07:19;;;;;;;1.70;1.60;;;;;;;;;;5099442;28;20199;-61
2022/09/02 14:09:47;;;;;;;1.85;1.75;;;;;;;;;;5098738;28;20679;-62
2022/09/02 14:12:15;;;;;;;2.47;1.85;;;;;;;;;;5115725;27;20672;-64
2022/09/02 14:14:43;;;;;;;4.28;2.00;;;;;;;;;;5119147;28;20232;-62
2022/09/02 14:17:21;;;;;;;2.03;1.92;;;;;;;;;;5119020;28;20342;-61
2022/09/02 14:19:50;;;;;;;2.30;2.08;;;;;;;;;;5119413;28;20203;-63
2022/09/02 14:22:21;;;;;;;2.38;1.80;;;;;;;;;;5118799;27;20215;-61
2022/09/02 14:24:49;;;;;;;1.70;1.60;;;;;;;;;;5113406;28;20261;-62
2022/09/02 14:27:18;;;;;;;2.15;1.80;;;;;;;;;;5098806;27;20567;-62
2022/09/02 14:29:47;;;;;;;3.78;1.98;;;;;;;;;;5125490;27;20227;-62
2022/09/02 14:32:20;;;;;;;1.85;1.73;;;;;;;;;;5131169;27;20252;-62
2022/09/02 14:34:49;;;;;;;1.98;1.73;;;;;;;;;;5125004;27;20260;-62
2022/09/02 14:37:20;;;;;;;3.00;1.90;;;;;;;;;;5129819;27;20226;-62
2022/09/02 14:40:05;;;;;;;1.83;1.70;;;;;;;;;;5102010;28;20201;-61
2022/09/02 14:42:33;;;;;;;3.50;1.60;;;;;;;;;;5117842;28;20618;-62
2022/09/02 14:45:04;;;;;;;1.80;1.70;;;;;;;;;;5118855;28;20231;-61
2022/09/02 14:47:36;;;;;;;1.97;1.80;;;;;;;;;;5116803;28;20202;-61
2022/09/02 14:50:04;;;;;;;2.55;1.90;;;;;;;;;;5117939;28;20242;-62
2022/09/02 14:52:35;;;;;;;2.40;2.17;;;;;;;;;;5116699;27;20658;-61
2022/09/02 14:55:05;;;;;;;3.30;2.20;;;;;;;;;;5124229;27;20219;-62
2022/09/02 14:57:34;;;;;;;2.30;2.10;;;;;;;;;;5118347;27;20225;-62
2022/09/02 15:00:05;;;;;;;2.85;2.13;;;;;;;;;;5118010;27;20613;-62
2022/09/02 15:02:34;;;;;;;2.42;2.22;;;;;;;;;;5122762;27;20241;-62
2022/09/02 15:05:04;;;;;;;2.13;1.90;;;;;;;;;;5122362;27;20660;-62
2022/09/02 15:11:03;;;;;;;3.33;2.95;;;;;;;;;;5117797;27;20222;-62